This is the latest recevied weather packets stored in our database for station/object BG5HLN-13. If no packets are shown the sender has not sent any weather packets the latest 10 day(s).
| Time | Temp. | Humidity | Pressure | Rain* | Wind** | Luminosity | Snow |
|---|---|---|---|---|---|---|---|
| 1777777767 | 21.11° C | 81% | 1009.6 hPa | 0.25 mm | - | - | - |
| 1777777765 | 21.11° C | 81% | 1009.6 hPa | 0.25 mm | - | - | - |
| 1777777165 | 21.11° C | 82% | 1009.6 hPa | 0.25 mm | - | - | - |
| 1777776565 | 20.56° C | 82% | 1009.6 hPa | 0.25 mm | - | - | - |
| 1777775968 | 20.56° C | 85% | 1009.7 hPa | 0 mm | - | - | - |
| 1777775964 | 20.56° C | 85% | 1009.8 hPa | 0 mm | - | - | - |
| 1777775364 | 20.56° C | 86% | 1009.8 hPa | 0 mm | - | - | - |
| 1777774164 | 19.44° C | 88% | 1009.7 hPa | 0 mm | - | - | - |
| 1777773565 | 19.44° C | 89% | 1009.8 hPa | 0 mm | - | - | - |
| 1777771764 | 18.89° C | 90% | 1009.5 hPa | 0 mm | - | - | - |
| 1777770565 | 19.44° C | 90% | 1009.2 hPa | 0 mm | - | - | - |
| 1777761565 | 17.78° C | 95% | 1007.4 hPa | 0.25 mm | - | - | - |
| 1777761563 | 17.78° C | 95% | 1007.4 hPa | 0.25 mm | - | - | - |
| 1777760963 | 17.78° C | 95% | 1007.2 hPa | 0.51 mm | - | - | - |
| 1777760363 | 17.78° C | 96% | 1006.9 hPa | 0.76 mm | - | - | - |
| 1777759764 | 17.78° C | 96% | 1006.7 hPa | 0.76 mm | - | - | - |
| 1777759163 | 17.78° C | 97% | 1006.7 hPa | 1.27 mm | - | - | - |
| 1777758563 | 17.78° C | 96% | 1006.6 hPa | 1.52 mm | - | - | - |
| 1777757363 | 18.33° C | 97% | 1006.3 hPa | 1.78 mm | - | - | - |
| 1777756763 | 18.89° C | 97% | 1006.2 hPa | 1.52 mm | - | - | - |
| 1777756163 | 18.89° C | 98% | 1006.1 hPa | 1.52 mm | - | - | - |
| 1777755563 | 18.89° C | 97% | 1005.9 hPa | 1.52 mm | - | - | - |
| 1777754963 | 18.89° C | 97% | 1005.7 hPa | 1.27 mm | - | - | - |
| 1777754366 | 18.89° C | 97% | 1005.6 hPa | 1.52 mm | - | - | - |
| 1777754363 | 18.89° C | 97% | 1005.5 hPa | 1.52 mm | - | - | - |
* Rain latest hour (hover to see other rain measurements)
** Current wind speed in m/s (hover to see current wind gust speed)